Time;durP1;ratioP1;P1;durP2;ratioP2;P2;SDS_P1;SDS_P2;PMS_P1;PMS_P2;Temp;Humidity;BMP_temperature;BMP_pressure;BME280_temperature;BME280_humidity;BME280_pressure;Samples;Min_cycle;Max_cycle;Signal;HPM_P1;HPM_P2
2022/04/06 00:00:37;;;;;;;4.07;1.40;;;10.70;99.90;;;;;;5044744;28;20057;-79
2022/04/06 00:03:04;;;;;;;2.85;1.10;;;10.80;99.90;;;;;;5033784;28;20080;-79
2022/04/06 00:05:31;;;;;;;7.35;2.45;;;10.80;99.90;;;;;;5046890;28;20045;-72
2022/04/06 00:07:58;;;;;;;4.55;1.33;;;10.70;99.90;;;;;;5041319;28;20089;-78
2022/04/06 00:10:25;;;;;;;5.22;1.80;;;10.80;99.90;;;;;;5034078;28;20057;-76
2022/04/06 00:12:52;;;;;;;4.50;1.50;;;10.70;99.90;;;;;;5039859;28;20049;-78
2022/04/06 00:15:19;;;;;;;2.50;1.25;;;10.80;99.90;;;;;;5049216;28;20361;-77
2022/04/06 00:17:46;;;;;;;5.70;1.60;;;10.70;99.90;;;;;;5043045;28;20214;-79
2022/04/06 00:20:14;;;;;;;5.25;1.63;;;10.80;99.90;;;;;;5018540;28;20053;-78
2022/04/06 00:22:41;;;;;;;7.00;1.35;;;10.80;99.90;;;;;;5028330;28;20041;-79
2022/04/06 00:25:08;;;;;;;3.92;1.70;;;10.80;99.90;;;;;;5046223;28;20624;-78
2022/04/06 00:27:35;;;;;;;5.28;1.52;;;10.80;99.90;;;;;;5036937;28;20057;-75
2022/04/06 00:30:03;;;;;;;2.55;1.08;;;10.80;99.90;;;;;;5029814;28;20049;-74
2022/04/06 00:32:30;;;;;;;3.97;1.35;;;10.90;99.90;;;;;;5033481;28;20519;-77
2022/04/06 00:37:42;;;;;;;4.50;2.38;;;10.80;99.90;;;;;;5033668;28;20042;-78
2022/04/06 00:40:09;;;;;;;3.30;1.50;;;10.80;99.90;;;;;;5033676;28;20057;-77
2022/04/06 00:42:36;;;;;;;4.07;1.77;;;10.80;99.90;;;;;;5034234;28;20052;-76
2022/04/06 00:45:03;;;;;;;2.75;1.20;;;10.80;99.90;;;;;;5033803;28;20045;-76
2022/04/06 00:47:30;;;;;;;5.65;1.70;;;10.80;99.90;;;;;;5036903;28;20057;-77
2022/04/06 00:49:57;;;;;;;5.05;1.27;;;10.80;99.90;;;;;;5011915;28;20053;-78
2022/04/06 00:52:24;;;;;;;5.50;1.30;;;10.80;99.90;;;;;;5030799;28;20139;-75
2022/04/06 00:54:51;;;;;;;4.20;1.08;;;10.80;99.90;;;;;;5029249;28;20662;-77
2022/04/06 00:57:21;;;;;;;2.85;1.02;;;10.80;99.90;;;;;;5036319;28;20046;-77
2022/04/06 00:59:57;;;;;;;3.15;1.30;;;10.80;99.90;;;;;;5034451;28;20057;-77
2022/04/06 01:02:25;;;;;;;5.15;1.45;;;10.70;99.90;;;;;;5048324;28;20457;-79
2022/04/06 01:04:52;;;;;;;2.85;1.58;;;10.70;99.90;;;;;;5034448;28;20485;-78
2022/04/06 01:07:19;;;;;;;5.35;1.48;;;10.70;99.90;;;;;;5034454;28;20412;-78
2022/04/06 01:09:46;;;;;;;2.38;1.20;;;10.70;99.90;;;;;;5034192;28;20053;-76
2022/04/06 01:12:13;;;;;;;2.47;1.23;;;10.70;99.90;;;;;;5033028;28;20050;-77
2022/04/06 01:14:40;;;;;;;2.33;1.00;;;10.70;99.90;;;;;;5014559;28;20064;-77
2022/04/06 01:17:08;;;;;;;6.10;1.10;;;10.60;99.90;;;;;;5023399;28;20077;-77
2022/04/06 01:19:37;;;;;;;6.30;1.25;;;10.60;99.90;;;;;;5040794;28;20426;-76
2022/04/06 01:22:11;;;;;;;4.70;1.35;;;10.50;99.90;;;;;;5037178;28;20053;-77
2022/04/06 01:24:38;;;;;;;3.58;1.17;;;10.40;99.90;;;;;;5043584;28;20054;-78
2022/04/06 01:27:05;;;;;;;2.67;1.17;;;10.30;99.90;;;;;;5031095;28;20057;-77
2022/04/06 01:29:32;;;;;;;4.53;1.30;;;10.30;99.90;;;;;;5037054;28;20052;-76
2022/04/06 01:32:13;;;;;;;4.78;2.03;;;10.20;99.90;;;;;;5032494;28;20068;-77
2022/04/06 01:34:40;;;;;;;7.10;1.45;;;10.10;99.90;;;;;;5006023;28;20058;-77
2022/04/06 01:37:07;;;;;;;5.65;1.42;;;10.10;99.90;;;;;;5040667;28;20060;-77
2022/04/06 01:39:34;;;;;;;3.25;1.20;;;10.00;99.90;;;;;;5008037;28;20053;-76
2022/04/06 01:42:02;;;;;;;7.38;1.85;;;10.00;99.90;;;;;;5032045;28;20528;-77
2022/04/06 01:44:29;;;;;;;4.10;1.23;;;10.10;99.90;;;;;;5033138;28;20093;-76
2022/04/06 01:46:56;;;;;;;3.58;1.52;;;10.00;99.90;;;;;;5035086;28;20046;-76
2022/04/06 01:52:15;;;;;;;5.38;1.55;;;10.10;99.90;;;;;;5034357;28;20412;-78
2022/04/06 01:54:47;;;;;;;6.22;1.58;;;10.10;99.90;;;;;;5023706;28;20060;-77
2022/04/06 01:57:14;;;;;;;6.15;1.80;;;10.10;99.90;;;;;;5019504;28;20073;-77
2022/04/06 01:59:41;;;;;;;4.07;1.48;;;10.00;99.90;;;;;;5033166;28;20054;-78
2022/04/06 02:02:09;;;;;;;7.18;1.90;;;10.00;99.90;;;;;;5033215;28;20048;-77
2022/04/06 02:04:39;;;;;;;3.83;1.27;;;10.00;99.90;;;;;;5032644;28;20060;-78
2022/04/06 02:07:06;;;;;;;4.00;1.38;;;10.00;99.90;;;;;;5020027;28;20055;-72
2022/04/06 02:09:36;;;;;;;3.22;1.67;;;9.90;99.90;;;;;;5038999;28;20053;-77
2022/04/06 02:12:03;;;;;;;5.07;1.80;;;9.90;99.90;;;;;;5033361;28;20045;-78
2022/04/06 02:14:30;;;;;;;5.45;1.40;;;9.80;99.90;;;;;;5032041;28;20404;-77
2022/04/06 02:16:57;;;;;;;5.50;1.40;;;9.80;99.90;;;;;;5037248;28;20037;-77
2022/04/06 02:19:24;;;;;;;3.60;1.40;;;9.80;99.90;;;;;;5025655;28;20106;-76
2022/04/06 02:21:51;;;;;;;5.50;1.55;;;9.70;99.90;;;;;;5018418;28;20081;-78
2022/04/06 02:24:18;;;;;;;6.75;1.98;;;9.70;99.90;;;;;;5037311;28;20447;-78
2022/04/06 02:26:45;;;;;;;4.18;1.52;;;9.60;99.90;;;;;;5045303;28;20061;-78
2022/04/06 02:29:12;;;;;;;6.40;2.05;;;9.60;99.90;;;;;;5033298;28;20047;-77
2022/04/06 02:31:39;;;;;;;7.78;1.55;;;9.60;99.90;;;;;;5026772;28;20492;-76
2022/04/06 02:34:06;;;;;;;6.95;1.40;;;9.60;99.90;;;;;;5022265;28;20052;-71
2022/04/06 02:36:33;;;;;;;4.85;2.15;;;9.50;99.90;;;;;;5015882;28;20053;-78
2022/04/06 02:39:00;;;;;;;7.63;1.75;;;9.50;99.90;;;;;;5043781;28;20041;-78
2022/04/06 02:41:28;;;;;;;4.15;1.90;;;9.50;99.90;;;;;;5037130;28;20057;-76
2022/04/06 02:43:55;;;;;;;4.15;1.80;;;9.50;99.90;;;;;;5029689;28;20558;-77
2022/04/06 02:46:21;;;;;;;7.35;1.95;;;9.50;99.90;;;;;;5032462;28;20512;-77
2022/04/06 02:48:48;;;;;;;2.75;1.38;;;9.50;99.90;;;;;;5032056;28;20103;-77
2022/04/06 02:51:16;;;;;;;8.70;2.13;;;9.50;99.90;;;;;;5031855;28;20389;-78
2022/04/06 02:53:43;;;;;;;3.25;1.35;;;9.50;99.90;;;;;;5017457;28;20049;-78
2022/04/06 02:56:09;;;;;;;7.20;2.75;;;9.40;99.90;;;;;;5013871;28;20476;-77
2022/04/06 02:58:36;;;;;;;10.27;1.95;;;9.50;99.90;;;;;;5031923;28;20045;-76
2022/04/06 03:01:03;;;;;;;5.13;1.67;;;9.50;99.90;;;;;;5033642;28;20055;-78
2022/04/06 03:03:30;;;;;;;11.23;2.50;;;9.50;99.90;;;;;;5032119;28;20050;-78
2022/04/06 03:05:57;;;;;;;6.82;1.77;;;9.50;99.90;;;;;;5031495;28;20045;-78
2022/04/06 03:08:24;;;;;;;4.22;1.50;;;9.50;99.90;;;;;;5031835;28;20048;-76
2022/04/06 03:10:51;;;;;;;5.97;1.63;;;9.50;99.90;;;;;;5043278;28;20400;-77
2022/04/06 03:13:18;;;;;;;9.65;2.45;;;9.50;99.90;;;;;;5034687;28;20049;-77
2022/04/06 03:15:45;;;;;;;6.03;2.58;;;9.50;99.90;;;;;;5011256;28;20046;-76
2022/04/06 03:18:12;;;;;;;7.63;2.08;;;9.50;99.90;;;;;;5031380;28;20045;-76
2022/04/06 03:20:39;;;;;;;5.05;2.25;;;9.60;99.90;;;;;;5016322;28;20045;-77
2022/04/06 03:23:06;;;;;;;4.70;1.55;;;9.50;99.90;;;;;;5015536;28;20477;-71
2022/04/06 03:25:33;;;;;;;8.15;2.20;;;9.50;99.90;;;;;;5032907;28;20049;-74
2022/04/06 03:27:59;;;;;;;6.25;1.73;;;9.50;99.90;;;;;;5031165;28;20076;-78
2022/04/06 03:30:26;;;;;;;8.25;1.90;;;9.50;99.90;;;;;;5014285;28;20053;-77
2022/04/06 03:32:53;;;;;;;7.53;1.60;;;9.50;99.90;;;;;;5030451;28;20437;-78
2022/04/06 03:35:20;;;;;;;4.18;1.75;;;9.50;99.90;;;;;;5035604;28;20045;-77
2022/04/06 03:37:47;;;;;;;6.20;2.20;;;9.50;99.90;;;;;;5015007;28;20067;-73
2022/04/06 03:40:14;;;;;;;10.88;3.15;;;9.50;99.90;;;;;;5031090;28;20440;-78
2022/04/06 03:42:41;;;;;;;5.43;1.95;;;9.50;99.90;;;;;;5031568;28;20049;-77
2022/04/06 03:45:08;;;;;;;6.15;2.28;;;9.50;99.90;;;;;;5031448;28;20052;-76
2022/04/06 03:47:35;;;;;;;7.80;2.85;;;9.50;99.90;;;;;;5032948;28;20057;-77
2022/04/06 03:50:04;;;;;;;5.38;2.00;;;9.50;99.90;;;;;;5035734;28;20103;-74
2022/04/06 03:52:31;;;;;;;14.85;2.83;;;9.60;99.90;;;;;;5037189;28;20054;-77
2022/04/06 03:54:58;;;;;;;6.47;2.30;;;9.60;99.90;;;;;;5043504;28;20053;-78
2022/04/06 03:57:25;;;;;;;14.90;3.80;;;9.70;99.90;;;;;;5026619;28;20401;-78
2022/04/06 03:59:52;;;;;;;8.98;2.25;;;9.70;99.90;;;;;;5031694;28;20059;-78
2022/04/06 04:02:19;;;;;;;8.73;3.28;;;9.80;99.90;;;;;;5033646;28;20048;-72
2022/04/06 04:04:47;;;;;;;7.07;2.20;;;9.80;99.90;;;;;;4997352;28;20547;-77
2022/04/06 04:07:19;;;;;;;7.80;3.10;;;9.80;99.90;;;;;;5037743;28;20037;-78
2022/04/06 04:09:48;;;;;;;7.70;2.00;;;9.90;99.90;;;;;;5006093;28;20072;-77
2022/04/06 04:12:15;;;;;;;7.47;1.98;;;9.90;99.90;;;;;;5041554;28;20054;-77
2022/04/06 04:14:43;;;;;;;7.93;2.60;;;10.00;99.90;;;;;;5067881;28;20408;-77
2022/04/06 04:17:10;;;;;;;9.98;3.75;;;10.00;99.90;;;;;;5066890;28;20049;-77
2022/04/06 04:19:37;;;;;;;6.68;2.47;;;10.00;99.90;;;;;;5066714;28;20236;-77
2022/04/06 04:22:04;;;;;;;8.45;2.50;;;10.10;99.90;;;;;;5026883;28;20057;-72
2022/04/06 04:24:31;;;;;;;6.95;2.70;;;10.10;99.90;;;;;;5048350;28;20054;-77
2022/04/06 04:26:58;;;;;;;7.20;2.30;;;10.10;99.90;;;;;;5019427;28;20516;-78
2022/04/06 04:29:25;;;;;;;9.10;2.22;;;10.10;99.90;;;;;;5047685;28;20570;-71
2022/04/06 04:31:52;;;;;;;9.05;3.15;;;10.10;99.90;;;;;;5037469;28;20045;-78
2022/04/06 04:34:19;;;;;;;14.25;4.88;;;10.10;99.90;;;;;;5053942;28;20049;-78
2022/04/06 04:36:46;;;;;;;7.57;3.20;;;10.20;99.90;;;;;;5044330;28;20063;-75
2022/04/06 04:39:12;;;;;;;11.15;3.00;;;10.20;99.90;;;;;;5034128;28;20056;-77
2022/04/06 04:41:39;;;;;;;9.02;3.00;;;10.20;99.90;;;;;;5033470;28;20053;-71
2022/04/06 04:44:06;;;;;;;10.43;2.78;;;10.20;99.90;;;;;;5039467;28;20048;-76
2022/04/06 04:46:33;;;;;;;12.50;3.28;;;10.20;99.90;;;;;;5044216;28;20052;-77
2022/04/06 04:49:00;;;;;;;9.57;2.80;;;10.20;99.90;;;;;;5019990;28;20115;-76
2022/04/06 04:51:28;;;;;;;11.65;3.95;;;10.20;99.90;;;;;;5034071;28;20115;-77
2022/04/06 04:53:57;;;;;;;7.35;3.17;;;10.30;99.90;;;;;;5029278;28;20473;-77
2022/04/06 04:56:25;;;;;;;6.20;2.58;;;10.30;99.90;;;;;;5034126;28;20072;-77
2022/04/06 04:58:52;;;;;;;9.02;3.50;;;10.30;99.90;;;;;;5040734;28;20048;-78
2022/04/06 05:01:19;;;;;;;6.22;2.45;;;10.30;99.90;;;;;;5035178;28;20052;-78
2022/04/06 05:03:47;;;;;;;16.15;4.82;;;10.40;99.90;;;;;;5054413;28;20080;-77
2022/04/06 05:06:14;;;;;;;9.32;3.45;;;10.40;99.90;;;;;;5054856;28;20132;-77
2022/04/06 05:08:40;;;;;;;11.98;3.55;;;10.40;99.90;;;;;;5020695;28;20050;-76
2022/04/06 05:11:07;;;;;;;13.57;3.10;;;10.40;99.90;;;;;;5026245;28;20053;-76
2022/04/06 05:13:34;;;;;;;10.52;3.80;;;10.50;99.90;;;;;;5036880;28;20046;-77
2022/04/06 05:16:01;;;;;;;6.82;2.85;;;10.50;99.90;;;;;;5038736;28;20056;-77
2022/04/06 05:18:29;;;;;;;10.55;3.28;;;10.50;99.90;;;;;;5044151;28;20044;-77
2022/04/06 05:20:57;;;;;;;12.60;3.55;;;10.50;99.90;;;;;;5036022;28;20086;-77
2022/04/06 05:23:24;;;;;;;9.13;3.00;;;10.50;99.90;;;;;;5042426;28;20483;-78
2022/04/06 05:25:51;;;;;;;10.20;3.33;;;10.50;99.90;;;;;;5031245;28;20496;-77
2022/04/06 05:28:18;;;;;;;11.80;4.35;;;10.50;99.90;;;;;;5041710;28;20228;-78
2022/04/06 05:30:46;;;;;;;9.70;2.50;;;10.50;99.90;;;;;;5038792;28;20075;-76
2022/04/06 05:33:13;;;;;;;6.90;3.10;;;10.60;99.90;;;;;;5048827;28;20045;-78
2022/04/06 05:35:40;;;;;;;10.52;3.53;;;10.60;99.90;;;;;;5019091;28;20046;-77
2022/04/06 05:38:07;;;;;;;11.65;4.75;;;10.60;99.90;;;;;;5040274;28;20041;-77
2022/04/06 05:40:34;;;;;;;10.90;3.05;;;10.60;99.90;;;;;;5036818;28;20044;-77
2022/04/06 05:43:01;;;;;;;10.93;3.17;;;10.60;99.90;;;;;;5039637;28;20052;-77
2022/04/06 05:45:28;;;;;;;7.10;2.83;;;10.70;99.90;;;;;;5033138;28;20049;-78
2022/04/06 05:47:55;;;;;;;8.60;3.10;;;10.70;99.90;;;;;;5050239;28;20049;-77
2022/04/06 05:50:22;;;;;;;6.03;3.28;;;10.70;99.90;;;;;;5039993;28;20045;-77
2022/04/06 05:52:49;;;;;;;9.05;3.17;;;10.70;99.90;;;;;;5020145;28;20079;-77
2022/04/06 05:55:16;;;;;;;6.43;2.53;;;10.80;99.90;;;;;;5038845;28;20049;-78
2022/04/06 05:57:43;;;;;;;11.07;3.05;;;10.80;99.90;;;;;;5031330;28;20050;-77
2022/04/06 06:00:11;;;;;;;12.63;2.90;;;10.80;99.90;;;;;;5034897;28;20045;-77
2022/04/06 06:02:38;;;;;;;9.85;2.83;;;10.80;99.90;;;;;;5036968;28;20046;-78
2022/04/06 06:05:05;;;;;;;7.40;2.60;;;10.80;99.90;;;;;;5008769;28;20100;-77
2022/04/06 06:07:32;;;;;;;9.82;2.92;;;10.80;99.90;;;;;;5046350;28;20049;-78
2022/04/06 06:09:59;;;;;;;10.38;2.33;;;10.90;99.90;;;;;;5036508;28;20061;-75
2022/04/06 06:12:26;;;;;;;7.70;2.70;;;10.90;99.90;;;;;;5033350;28;20046;-76
2022/04/06 06:14:55;;;;;;;13.30;3.50;;;10.90;99.90;;;;;;5043876;28;20084;-76
2022/04/06 06:17:22;;;;;;;6.30;2.78;;;10.90;99.90;;;;;;5033298;28;20056;-76
2022/04/06 06:19:49;;;;;;;16.13;3.13;;;11.00;99.90;;;;;;5037769;28;20049;-76
2022/04/06 06:22:17;;;;;;;3.53;1.65;;;11.00;99.90;;;;;;5037580;28;20041;-76
2022/04/06 06:24:44;;;;;;;8.88;2.92;;;11.00;99.90;;;;;;5040623;28;20052;-70
2022/04/06 06:27:17;;;;;;;7.50;2.40;;;11.10;99.90;;;;;;5033892;28;20045;-76
2022/04/06 06:29:45;;;;;;;8.48;2.65;;;11.10;99.90;;;;;;5035807;28;20076;-72
2022/04/06 06:32:12;;;;;;;7.18;2.85;;;11.20;99.90;;;;;;5029455;28;20480;-77
2022/04/06 06:34:39;;;;;;;6.68;2.55;;;11.20;99.90;;;;;;5020690;28;20064;-77
2022/04/06 06:37:06;;;;;;;7.38;2.35;;;11.20;99.90;;;;;;5037799;28;20049;-75
2022/04/06 06:39:33;;;;;;;11.00;2.65;;;11.30;99.90;;;;;;5017462;28;20064;-76
2022/04/06 06:42:00;;;;;;;7.35;2.50;;;11.40;99.90;;;;;;5036839;28;20045;-75
2022/04/06 06:44:27;;;;;;;9.60;2.17;;;11.50;99.90;;;;;;5036457;28;20055;-76
2022/04/06 06:46:54;;;;;;;6.15;2.97;;;11.60;99.90;;;;;;5014696;28;20053;-75
2022/04/06 06:49:25;;;;;;;7.80;2.08;;;11.70;99.90;;;;;;5041340;28;20485;-75
2022/04/06 06:51:52;;;;;;;10.27;3.00;;;11.80;99.90;;;;;;5037415;28;20049;-75
2022/04/06 06:54:19;;;;;;;8.07;2.35;;;12.00;99.90;;;;;;5022090;28;20073;-78
2022/04/06 06:56:46;;;;;;;7.97;2.03;;;12.10;99.90;;;;;;5032622;28;20041;-77
2022/04/06 06:59:13;;;;;;;4.47;2.00;;;12.00;99.90;;;;;;5029976;28;20046;-75
2022/04/06 07:01:40;;;;;;;6.63;2.33;;;12.00;99.90;;;;;;5018835;28;20064;-78
2022/04/06 07:04:12;;;;;;;10.15;2.58;;;12.00;99.90;;;;;;5048463;28;20132;-76
2022/04/06 07:06:39;;;;;;;6.60;2.67;;;12.00;99.90;;;;;;5040497;28;20045;-77
2022/04/06 07:09:06;;;;;;;10.65;2.50;;;12.00;99.90;;;;;;5041351;28;20055;-77
2022/04/06 07:11:33;;;;;;;13.70;2.92;;;12.00;99.90;;;;;;5015836;28;20052;-77
2022/04/06 07:14:00;;;;;;;10.70;2.70;;;12.00;99.90;;;;;;5040294;28;20056;-77
2022/04/06 07:16:27;;;;;;;7.70;3.72;;;12.00;99.90;;;;;;5031335;28;20143;-76
2022/04/06 07:18:54;;;;;;;6.03;2.50;;;11.90;99.90;;;;;;5020048;28;20124;-77
2022/04/06 07:21:21;;;;;;;9.88;3.30;;;11.80;99.90;;;;;;5030780;28;20045;-76
2022/04/06 07:23:48;;;;;;;7.70;2.67;;;11.90;99.90;;;;;;5016341;28;20089;-77
2022/04/06 07:26:17;;;;;;;9.02;2.80;;;11.90;99.90;;;;;;5022239;28;20132;-76
2022/04/06 07:28:47;;;;;;;8.20;2.80;;;11.80;99.90;;;;;;5041799;28;20085;-72
2022/04/06 07:31:14;;;;;;;10.82;2.22;;;11.80;99.90;;;;;;5031008;28;20634;-76
2022/04/06 07:33:41;;;;;;;8.50;3.20;;;11.80;99.90;;;;;;5030020;28;20133;-77
2022/04/06 07:36:08;;;;;;;10.65;3.90;;;11.80;99.90;;;;;;5027712;28;20048;-76
2022/04/06 07:38:35;;;;;;;11.60;3.15;;;11.80;99.90;;;;;;5038257;28;20060;-76
2022/04/06 07:41:02;;;;;;;6.50;2.40;;;11.80;99.90;;;;;;5050613;28;20073;-76
2022/04/06 07:43:30;;;;;;;8.10;2.53;;;11.80;99.90;;;;;;5018814;28;20157;-76
2022/04/06 07:45:57;;;;;;;12.43;3.33;;;11.80;99.90;;;;;;5029090;28;20045;-76
2022/04/06 07:48:27;;;;;;;7.28;2.83;;;11.80;99.90;;;;;;5029748;28;20045;-75
2022/04/06 07:50:55;;;;;;;8.00;2.65;;;11.80;99.90;;;;;;5011347;28;20105;-76
2022/04/06 07:53:22;;;;;;;6.72;2.47;;;11.80;99.90;;;;;;5031096;28;20120;-83
2022/04/06 07:55:50;;;;;;;8.63;2.53;;;11.80;99.90;;;;;;5042791;28;20124;-78
2022/04/06 07:58:20;;;;;;;7.07;2.63;;;11.80;99.90;;;;;;5035993;28;20045;-77
2022/04/06 08:00:47;;;;;;;10.43;2.50;;;11.70;99.90;;;;;;5028729;28;20049;-77
2022/04/06 08:03:14;;;;;;;9.77;3.58;;;11.80;99.90;;;;;;5013421;28;20100;-74
2022/04/06 08:05:41;;;;;;;9.10;4.60;;;11.80;99.90;;;;;;5013059;28;20049;-74
2022/04/06 08:08:07;;;;;;;8.45;3.22;;;11.80;99.90;;;;;;5037615;28;20481;-72
2022/04/06 08:10:35;;;;;;;6.50;2.88;;;11.80;99.90;;;;;;5033365;28;20054;-71
2022/04/06 08:13:05;;;;;;;4.82;1.80;;;11.90;99.90;;;;;;5015199;28;20045;-72
2022/04/06 08:15:32;;;;;;;4.10;1.85;;;11.80;99.90;;;;;;5029770;28;20088;-70
2022/04/06 08:17:59;;;;;;;4.15;2.10;;;11.70;99.90;;;;;;5040389;28;20424;-71
2022/04/06 08:20:26;;;;;;;3.47;1.80;;;11.70;99.90;;;;;;5032146;28;20064;-71
2022/04/06 08:22:53;;;;;;;7.97;2.40;;;11.70;99.90;;;;;;5030690;28;20088;-71
2022/04/06 08:25:20;;;;;;;3.83;2.17;;;11.70;99.90;;;;;;5036987;28;20072;-72
2022/04/06 08:28:01;;;;;;;4.55;1.95;;;11.70;99.90;;;;;;5036743;28;20065;-72
2022/04/06 08:30:28;;;;;;;3.63;2.05;;;11.70;99.90;;;;;;5032915;28;20045;-72
2022/04/06 08:32:58;;;;;;;6.15;2.50;;;11.80;99.90;;;;;;5023549;28;20056;-72
2022/04/06 08:35:26;;;;;;;5.90;2.97;;;11.80;99.90;;;;;;5023076;28;20045;-73
2022/04/06 08:37:53;;;;;;;4.72;2.30;;;11.70;99.90;;;;;;5038209;28;20053;-71
2022/04/06 08:40:20;;;;;;;3.53;1.67;;;11.70;99.90;;;;;;5025829;28;20060;-71
2022/04/06 08:42:47;;;;;;;5.97;2.53;;;11.60;99.90;;;;;;5039691;28;20049;-71
2022/04/06 08:45:16;;;;;;;4.60;1.73;;;11.60;99.90;;;;;;5051517;28;20074;-71
2022/04/06 08:47:49;;;;;;;8.73;2.13;;;11.60;99.90;;;;;;5020785;28;20119;-71
2022/04/06 08:50:20;;;;;;;4.53;1.75;;;11.60;99.90;;;;;;5046632;28;20061;-70
2022/04/06 08:52:47;;;;;;;4.60;2.42;;;11.60;99.90;;;;;;5010647;28;20041;-70
2022/04/06 08:55:32;;;;;;;98.93;73.53;;;11.60;99.90;;;;;;5033004;28;20413;-72
2022/04/06 08:58:00;;;;;;;10.05;7.75;;;11.60;99.90;;;;;;5012688;28;20412;-72
2022/04/06 09:00:27;;;;;;;4.38;2.70;;;11.60;99.90;;;;;;5032286;28;20037;-72
2022/04/06 09:02:54;;;;;;;10.10;2.55;;;11.70;99.90;;;;;;5045910;28;20064;-71
2022/04/06 09:05:28;;;;;;;7.25;2.42;;;11.80;99.90;;;;;;5036857;28;20095;-80
2022/04/06 09:07:56;;;;;;;4.43;1.60;;;11.80;99.90;;;;;;5026747;28;20136;-73
2022/04/06 09:10:36;;;;;;;4.75;1.65;;;12.00;99.90;;;;;;5021312;28;20096;-73
2022/04/06 09:13:21;;;;;;;5.97;1.90;;;12.10;99.90;;;;;;5041670;28;20507;-74
2022/04/06 09:15:53;;;;;;;3.88;1.52;;;12.30;99.90;;;;;;5016274;28;20132;-74
2022/04/06 09:18:31;;;;;;;5.10;1.95;;;12.40;99.90;;;;;;5032902;28;20464;-75
2022/04/06 09:21:01;;;;;;;26.58;15.30;;;12.60;99.90;;;;;;5017785;28;20052;-73
2022/04/06 09:23:34;;;;;;;9.82;3.53;;;12.80;99.90;;;;;;5033567;28;20068;-74
2022/04/06 09:26:06;;;;;;;4.35;2.00;;;13.00;99.90;;;;;;5033323;28;20059;-74
2022/04/06 09:28:40;;;;;;;4.13;1.45;;;13.00;99.90;;;;;;5033102;28;20045;-74
2022/04/06 09:31:08;;;;;;;4.00;1.83;;;13.10;99.90;;;;;;5033165;28;20061;-73
2022/04/06 09:33:41;;;;;;;5.30;1.88;;;13.20;99.90;;;;;;5033068;28;20076;-73
2022/04/06 09:36:29;;;;;;;4.05;1.80;;;13.20;99.90;;;;;;5034239;28;20053;-73
2022/04/06 09:38:56;;;;;;;6.45;1.88;;;13.30;99.90;;;;;;5016907;28;20049;-72
2022/04/06 09:41:25;;;;;;;4.57;1.80;;;13.40;99.90;;;;;;5013000;28;20061;-71
2022/04/06 09:43:53;;;;;;;3.20;1.50;;;13.50;99.90;;;;;;4997139;28;20046;-72
2022/04/06 09:49:14;;;;;;;3.90;1.73;;;13.60;99.90;;;;;;5018504;28;20049;-72
2022/04/06 09:51:43;;;;;;;3.65;1.50;;;13.70;99.90;;;;;;5033930;28;20405;-72
2022/04/06 09:54:12;;;;;;;5.30;2.00;;;13.60;99.90;;;;;;5016569;28;20053;-73
2022/04/06 09:56:39;;;;;;;7.70;1.95;;;13.70;99.90;;;;;;5032487;28;20408;-73
2022/04/06 09:59:07;;;;;;;5.53;2.10;;;13.60;99.90;;;;;;5033143;28;20132;-73
2022/04/06 10:01:36;;;;;;;5.65;1.80;;;13.70;99.90;;;;;;5033255;28;20050;-74
2022/04/06 10:04:04;;;;;;;5.55;1.50;;;13.70;99.90;;;;;;5016135;28;20128;-70
2022/04/06 10:06:35;;;;;;;5.77;2.23;;;13.80;99.90;;;;;;5034363;28;20056;-73
2022/04/06 10:09:10;;;;;;;5.40;1.85;;;14.00;99.90;;;;;;5011064;28;20290;-72
2022/04/06 10:11:38;;;;;;;6.22;1.70;;;14.00;99.90;;;;;;5031484;28;20072;-72
2022/04/06 10:14:06;;;;;;;4.22;1.88;;;14.00;99.90;;;;;;5011651;28;20065;-69
2022/04/06 10:16:36;;;;;;;53.37;39.70;;;14.10;99.90;;;;;;5008334;28;20052;-73
2022/04/06 10:19:07;;;;;;;67.38;54.83;;;14.20;99.90;;;;;;5040265;28;20041;-72
2022/04/06 10:21:41;;;;;;;7.28;4.93;;;14.20;99.90;;;;;;5021133;28;20257;-75
2022/04/06 10:24:20;;;;;;;7.70;3.00;;;14.30;99.90;;;;;;5046261;28;20049;-74
2022/04/06 10:26:57;;;;;;;;;;;14.40;99.90;;;;;;5041230;28;20420;-74
2022/04/06 10:29:25;;;;;;;9.48;3.33;;;14.50;99.90;;;;;;5042829;28;20044;-74
2022/04/06 10:31:52;;;;;;;5.03;1.95;;;14.40;99.90;;;;;;5044276;28;20045;-72
2022/04/06 10:34:31;;;;;;;5.50;1.50;;;14.40;99.90;;;;;;5036720;28;20053;-74
2022/04/06 10:37:11;;;;;;;5.75;1.73;;;14.50;99.90;;;;;;5035223;28;20099;-73
2022/04/06 10:39:50;;;;;;;7.05;2.83;;;14.50;99.90;;;;;;5040354;28;20049;-74
2022/04/06 10:42:28;;;;;;;6.53;3.08;;;14.50;99.90;;;;;;5032816;28;20038;-73
2022/04/06 10:44:55;;;;;;;4.63;2.00;;;14.40;99.90;;;;;;5036749;28;20118;-73
2022/04/06 10:47:22;;;;;;;9.07;4.30;;;14.30;99.90;;;;;;5051900;28;20056;-74
2022/04/06 10:50:15;;;;;;;10.57;5.95;;;14.10;99.90;;;;;;5000444;28;20843;-70
2022/04/06 10:52:45;;;;;;;9.35;3.80;;;14.00;99.90;;;;;;5024820;28;20060;-71
2022/04/06 10:55:23;;;;;;;6.65;2.30;;;13.80;99.90;;;;;;5029569;28;20405;-71
2022/04/06 10:57:55;;;;;;;8.65;2.83;;;13.70;99.90;;;;;;4998575;28;20488;-71
2022/04/06 11:00:22;;;;;;;9.57;2.72;;;13.80;99.90;;;;;;5031559;28;20922;-72
2022/04/06 11:02:51;;;;;;;5.70;3.08;;;13.80;99.90;;;;;;5031894;28;20049;-72
2022/04/06 11:05:47;;;;;;;7.50;2.10;;;13.70;99.90;;;;;;5000631;28;20049;-75
2022/04/06 11:11:43;;;;;;;8.57;3.10;;;14.00;99.90;;;;;;5016656;28;20120;-76
2022/04/06 11:14:13;;;;;;;8.48;2.45;;;14.10;99.90;;;;;;5041726;28;20050;-70
2022/04/06 11:16:46;;;;;;;4.13;1.63;;;14.20;99.90;;;;;;5031862;28;20045;-71
2022/04/06 11:19:14;;;;;;;7.10;2.10;;;14.30;99.90;;;;;;5063467;28;20057;-70
2022/04/06 11:21:47;;;;;;;5.85;1.80;;;14.40;99.90;;;;;;5031494;28;20057;-79
2022/04/06 11:24:18;;;;;;;4.32;1.73;;;14.60;99.90;;;;;;5040420;28;20086;-74
2022/04/06 11:26:45;;;;;;;5.32;2.00;;;14.60;99.90;;;;;;5024140;28;20159;-74
2022/04/06 11:29:12;;;;;;;83.97;63.75;;;14.60;99.90;;;;;;5033060;28;20049;-73
2022/04/06 11:32:04;;;;;;;32.13;25.42;;;14.80;99.90;;;;;;5030722;28;20060;-72
2022/04/06 11:34:38;;;;;;;9.88;4.28;;;14.80;99.90;;;;;;5031386;28;20084;-71
2022/04/06 11:37:07;;;;;;;10.05;3.10;;;15.00;99.90;;;;;;5056238;28;20049;-60
2022/04/06 11:39:34;;;;;;;12.15;6.97;;;15.10;99.90;;;;;;5031654;28;20179;-76
2022/04/06 11:42:05;;;;;;;5.35;2.50;;;15.40;99.90;;;;;;5028718;28;20316;-75
2022/04/06 11:44:33;;;;;;;9.88;2.65;;;15.20;99.90;;;;;;5029563;28;20067;-74
2022/04/06 11:46:59;;;;;;;5.32;2.17;;;15.10;99.90;;;;;;5013972;28;20050;-78
2022/04/06 11:49:29;;;;;;;5.53;2.38;;;15.10;99.90;;;;;;5010892;28;20065;-78
2022/04/06 11:51:57;;;;;;;4.88;2.08;;;15.10;99.90;;;;;;5026666;28;20434;-77
2022/04/06 11:54:26;;;;;;;4.97;1.75;;;15.00;99.90;;;;;;5042458;28;20117;-75
2022/04/06 11:56:53;;;;;;;3.03;1.42;;;15.00;99.90;;;;;;5011740;28;20054;-80
2022/04/06 11:59:22;;;;;;;2.72;1.70;;;14.90;99.90;;;;;;5026075;28;20053;-76
2022/04/06 12:01:51;;;;;;;2.28;1.48;;;14.90;99.90;;;;;;5026140;28;20045;-77
2022/04/06 12:04:21;;;;;;;16.80;11.18;;;15.00;99.90;;;;;;5009108;28;20058;-73
2022/04/06 12:06:48;;;;;;;;;;;15.00;99.90;;;;;;5017252;28;20484;-79
2022/04/06 12:09:15;;;;;;;5.30;2.15;;;15.00;99.90;;;;;;5027551;28;19928;-74
2022/04/06 12:11:42;;;;;;;4.70;1.70;;;14.90;99.90;;;;;;5011584;28;20052;-73
2022/04/06 12:14:11;;;;;;;3.60;1.20;;;15.00;99.90;;;;;;5027608;28;20470;-74
2022/04/06 12:16:38;;;;;;;3.33;1.30;;;15.00;99.90;;;;;;5027336;28;20508;-74
2022/04/06 12:19:12;;;;;;;4.50;1.40;;;15.00;99.90;;;;;;5028007;28;20053;-73
2022/04/06 12:21:41;;;;;;;2.72;1.25;;;15.00;99.90;;;;;;5027662;28;20056;-76
2022/04/06 12:24:09;;;;;;;4.18;1.20;;;14.90;99.90;;;;;;5027646;28;20404;-77
2022/04/06 12:26:51;;;;;;;3.40;1.35;;;14.90;99.90;;;;;;5027563;28;20068;-76
2022/04/06 12:29:18;;;;;;;3.20;1.58;;;14.70;99.90;;;;;;5027219;28;20108;-75
2022/04/06 12:31:45;;;;;;;4.75;1.58;;;14.50;99.90;;;;;;5027143;28;20548;-76
2022/04/06 12:34:38;;;;;;;1.63;1.00;;;14.30;99.90;;;;;;5029161;28;20042;-76
2022/04/06 12:39:57;;;;;;;2.33;1.00;;;13.90;99.90;;;;;;5026216;28;20052;-75
2022/04/06 12:42:25;;;;;;;3.28;0.73;;;13.70;99.90;;;;;;5007249;28;20057;-75
2022/04/06 12:44:57;;;;;;;22.48;19.10;;;13.50;99.90;;;;;;5026808;28;20061;-74
2022/04/06 12:47:24;;;;;;;8.82;6.32;;;13.50;99.90;;;;;;5048078;28;20052;-73
2022/04/06 12:49:52;;;;;;;4.28;1.95;;;13.70;99.90;;;;;;5031658;28;20057;-79
2022/04/06 12:52:20;;;;;;;3.00;1.17;;;13.70;99.90;;;;;;5031101;28;20059;-84
2022/04/06 12:54:49;;;;;;;3.50;1.67;;;13.90;99.90;;;;;;5032723;28;20137;-81
2022/04/06 12:57:20;;;;;;;3.28;1.10;;;14.00;99.90;;;;;;5031481;28;20140;-74
2022/04/06 13:00:02;;;;;;;2.33;1.45;;;14.20;99.90;;;;;;5030680;28;20052;-76
2022/04/06 13:02:37;;;;;;;2.30;1.23;;;14.30;99.90;;;;;;5031414;28;20136;-74
2022/04/06 13:05:08;;;;;;;3.78;1.17;;;14.50;99.90;;;;;;5030960;28;20045;-75
2022/04/06 13:07:35;;;;;;;3.08;1.17;;;14.60;99.90;;;;;;5033104;28;20041;-76
2022/04/06 13:10:14;;;;;;;3.67;1.20;;;14.60;99.90;;;;;;5032968;28;20477;-74